sensor_id;sensor_type;location;lat;lon;timestamp;pressure;altitude;pressure_sealevel;temperature;humidity
25610;BME280;13479;49.044;8.716;2022-12-07T05:00:22;99115.88;;;3.80;82.89
25610;BME280;13479;49.044;8.716;2022-12-07T05:02:47;99124.50;;;3.82;82.72
25610;BME280;13479;49.044;8.716;2022-12-07T05:05:13;99122.50;;;3.87;82.90
25610;BME280;13479;49.044;8.716;2022-12-07T05:07:38;99126.81;;;3.88;82.96
25610;BME280;13479;49.044;8.716;2022-12-07T05:10:04;99122.78;;;3.97;83.50
25610;BME280;13479;49.044;8.716;2022-12-07T05:12:29;99146.94;;;4.04;82.50
25610;BME280;13479;49.044;8.716;2022-12-07T05:14:55;99164.50;;;4.03;82.59
25610;BME280;13479;49.044;8.716;2022-12-07T05:17:20;99162.69;;;4.04;82.22
25610;BME280;13479;49.044;8.716;2022-12-07T05:19:45;99165.31;;;4.04;82.49
25610;BME280;13479;49.044;8.716;2022-12-07T05:22:10;99154.97;;;4.00;81.98
25610;BME280;13479;49.044;8.716;2022-12-07T05:24:36;99146.16;;;4.01;82.24
25610;BME280;13479;49.044;8.716;2022-12-07T05:27:01;99170.31;;;4.08;81.93
25610;BME280;13479;49.044;8.716;2022-12-07T05:29:26;99165.81;;;4.10;81.75
25610;BME280;13479;49.044;8.716;2022-12-07T05:31:51;99183.38;;;4.10;81.11
25610;BME280;13479;49.044;8.716;2022-12-07T05:34:17;99181.00;;;4.21;80.67
25610;BME280;13479;49.044;8.716;2022-12-07T05:36:42;99179.34;;;4.18;80.70
25610;BME280;13479;49.044;8.716;2022-12-07T05:39:08;99169.53;;;4.22;81.01
25610;BME280;13479;49.044;8.716;2022-12-07T05:41:33;99166.81;;;4.24;80.89
25610;BME280;13479;49.044;8.716;2022-12-07T05:44:17;99154.50;;;4.24;80.42
25610;BME280;13479;49.044;8.716;2022-12-07T05:46:42;99162.38;;;4.24;79.74
25610;BME280;13479;49.044;8.716;2022-12-07T05:49:08;99170.53;;;4.20;80.29
25610;BME280;13479;49.044;8.716;2022-12-07T05:51:33;99166.31;;;4.17;79.54
25610;BME280;13479;49.044;8.716;2022-12-07T05:53:58;99155.81;;;4.17;78.98
25610;BME280;13479;49.044;8.716;2022-12-07T05:56:24;99145.66;;;4.11;79.66
25610;BME280;13479;49.044;8.716;2022-12-07T05:58:51;99140.03;;;4.17;78.68
25610;BME280;13479;49.044;8.716;2022-12-07T06:01:35;99143.22;;;4.08;78.46
25610;BME280;13479;49.044;8.716;2022-12-07T06:04:00;99140.03;;;4.17;78.54
25610;BME280;13479;49.044;8.716;2022-12-07T06:06:25;99130.97;;;4.23;78.68
25610;BME280;13479;49.044;8.716;2022-12-07T06:08:50;99163.38;;;4.38;77.40
25610;BME280;13479;49.044;8.716;2022-12-07T06:11:16;99165.69;;;4.28;77.55
25610;BME280;13479;49.044;8.716;2022-12-07T06:14:00;99137.03;;;4.23;77.39
25610;BME280;13479;49.044;8.716;2022-12-07T06:16:25;99142.03;;;4.28;77.15
25610;BME280;13479;49.044;8.716;2022-12-07T06:18:50;99145.41;;;4.30;76.95
25610;BME280;13479;49.044;8.716;2022-12-07T06:21:15;99152.31;;;4.32;76.01
25610;BME280;13479;49.044;8.716;2022-12-07T06:23:41;99141.19;;;4.27;75.63
25610;BME280;13479;49.044;8.716;2022-12-07T06:26:06;99129.16;;;4.23;75.98
25610;BME280;13479;49.044;8.716;2022-12-07T06:28:31;99102.88;;;4.23;76.25
25610;BME280;13479;49.044;8.716;2022-12-07T06:31:01;99097.28;;;4.29;75.97
25610;BME280;13479;49.044;8.716;2022-12-07T06:33:27;99112.88;;;4.32;76.01
25610;BME280;13479;49.044;8.716;2022-12-07T06:35:53;99130.13;;;4.37;75.03
25610;BME280;13479;49.044;8.716;2022-12-07T06:38:18;99115.75;;;4.28;76.08
25610;BME280;13479;49.044;8.716;2022-12-07T06:40:44;99114.19;;;4.40;75.17
25610;BME280;13479;49.044;8.716;2022-12-07T06:43:09;99101.16;;;4.38;75.33
25610;BME280;13479;49.044;8.716;2022-12-07T06:45:34;99098.53;;;4.38;75.51
25610;BME280;13479;49.044;8.716;2022-12-07T06:48:00;99097.38;;;4.42;75.25
25610;BME280;13479;49.044;8.716;2022-12-07T06:50:25;99106.88;;;4.45;74.49
25610;BME280;13479;49.044;8.716;2022-12-07T06:52:51;99110.47;;;4.44;74.19
25610;BME280;13479;49.044;8.716;2022-12-07T06:55:17;99091.31;;;4.42;74.26
25610;BME280;13479;49.044;8.716;2022-12-07T06:57:42;99143.00;;;4.41;73.08
25610;BME280;13479;49.044;8.716;2022-12-07T07:00:08;99136.25;;;4.37;73.57
25610;BME280;13479;49.044;8.716;2022-12-07T07:02:33;99149.31;;;4.39;73.15
25610;BME280;13479;49.044;8.716;2022-12-07T07:04:58;99152.03;;;4.37;72.59
25610;BME280;13479;49.044;8.716;2022-12-07T07:07:24;99124.50;;;4.28;72.90
25610;BME280;13479;49.044;8.716;2022-12-07T07:09:49;99105.25;;;4.28;72.58
25610;BME280;13479;49.044;8.716;2022-12-07T07:12:14;99095.75;;;4.25;72.93
25610;BME280;13479;49.044;8.716;2022-12-07T07:14:39;99076.03;;;4.18;72.91
25610;BME280;13479;49.044;8.716;2022-12-07T07:17:05;99071.94;;;4.28;72.77
25610;BME280;13479;49.044;8.716;2022-12-07T07:19:30;99075.88;;;4.36;73.18
25610;BME280;13479;49.044;8.716;2022-12-07T07:21:55;99095.78;;;4.40;72.41
25610;BME280;13479;49.044;8.716;2022-12-07T07:24:21;99125.38;;;4.43;71.86
25610;BME280;13479;49.044;8.716;2022-12-07T07:26:46;99154.19;;;4.45;71.18
25610;BME280;13479;49.044;8.716;2022-12-07T07:29:11;99146.22;;;4.46;70.90
25610;BME280;13479;49.044;8.716;2022-12-07T07:31:36;99131.66;;;4.41;70.97
25610;BME280;13479;49.044;8.716;2022-12-07T07:34:02;99109.59;;;4.43;71.21
25610;BME280;13479;49.044;8.716;2022-12-07T07:36:27;99107.72;;;4.45;71.20
25610;BME280;13479;49.044;8.716;2022-12-07T07:38:52;99096.19;;;4.48;71.18
25610;BME280;13479;49.044;8.716;2022-12-07T07:41:18;99102.56;;;4.58;70.48
25610;BME280;13479;49.044;8.716;2022-12-07T07:43:43;99111.59;;;4.54;70.83
25610;BME280;13479;49.044;8.716;2022-12-07T07:46:08;99113.84;;;4.60;70.21
25610;BME280;13479;49.044;8.716;2022-12-07T07:48:33;99119.69;;;4.66;70.11
25610;BME280;13479;49.044;8.716;2022-12-07T07:50:59;99116.50;;;4.75;70.40
25610;BME280;13479;49.044;8.716;2022-12-07T07:53:24;99113.59;;;4.79;69.61
25610;BME280;13479;49.044;8.716;2022-12-07T07:55:51;99108.88;;;4.85;69.74
25610;BME280;13479;49.044;8.716;2022-12-07T07:58:17;99125.81;;;4.95;68.79
25610;BME280;13479;49.044;8.716;2022-12-07T08:00:42;99143.00;;;5.15;68.76
25610;BME280;13479;49.044;8.716;2022-12-07T08:03:07;99154.84;;;5.08;67.71
25610;BME280;13479;49.044;8.716;2022-12-07T08:05:33;99173.44;;;5.19;66.82
25610;BME280;13479;49.044;8.716;2022-12-07T08:07:58;99143.19;;;5.12;67.57
25610;BME280;13479;49.044;8.716;2022-12-07T08:10:24;99114.97;;;5.14;66.65
25610;BME280;13479;49.044;8.716;2022-12-07T08:12:49;99116.03;;;5.12;66.68
25610;BME280;13479;49.044;8.716;2022-12-07T08:15:37;99102.97;;;5.10;66.87
25610;BME280;13479;49.044;8.716;2022-12-07T08:18:02;99088.00;;;5.10;66.98
25610;BME280;13479;49.044;8.716;2022-12-07T08:20:30;99082.66;;;5.12;66.55
25610;BME280;13479;49.044;8.716;2022-12-07T08:22:55;99066.13;;;5.10;67.21
25610;BME280;13479;49.044;8.716;2022-12-07T08:25:21;99079.94;;;5.14;67.00
25610;BME280;13479;49.044;8.716;2022-12-07T08:27:50;99090.66;;;5.10;67.12
25610;BME280;13479;49.044;8.716;2022-12-07T08:30:16;99079.63;;;5.18;66.39
25610;BME280;13479;49.044;8.716;2022-12-07T08:32:43;99076.53;;;5.26;66.41
25610;BME280;13479;49.044;8.716;2022-12-07T08:35:09;99050.78;;;5.17;66.84
25610;BME280;13479;49.044;8.716;2022-12-07T08:37:34;99046.53;;;5.29;67.05
25610;BME280;13479;49.044;8.716;2022-12-07T08:39:59;99055.94;;;5.33;66.59
25610;BME280;13479;49.044;8.716;2022-12-07T08:42:24;99047.91;;;5.34;67.04
25610;BME280;13479;49.044;8.716;2022-12-07T08:44:54;99032.75;;;5.38;67.21
25610;BME280;13479;49.044;8.716;2022-12-07T08:47:20;99013.41;;;5.39;67.39
25610;BME280;13479;49.044;8.716;2022-12-07T08:49:47;98987.63;;;5.44;67.87
25610;BME280;13479;49.044;8.716;2022-12-07T08:52:15;98958.25;;;5.50;67.83
25610;BME280;13479;49.044;8.716;2022-12-07T08:54:41;98964.59;;;5.61;67.98
25610;BME280;13479;49.044;8.716;2022-12-07T08:57:08;98972.28;;;5.64;68.22
25610;BME280;13479;49.044;8.716;2022-12-07T08:59:36;98986.09;;;5.67;67.56
25610;BME280;13479;49.044;8.716;2022-12-07T09:02:03;98983.25;;;5.70;68.02
25610;BME280;13479;49.044;8.716;2022-12-07T09:04:28;99001.09;;;5.80;67.22
25610;BME280;13479;49.044;8.716;2022-12-07T09:06:54;99029.44;;;5.76;67.27
25610;BME280;13479;49.044;8.716;2022-12-07T09:09:19;99045.53;;;5.71;67.29
25610;BME280;13479;49.044;8.716;2022-12-07T09:11:45;99021.09;;;5.69;67.80
25610;BME280;13479;49.044;8.716;2022-12-07T09:14:10;99005.72;;;5.76;67.58
25610;BME280;13479;49.044;8.716;2022-12-07T09:16:37;99050.63;;;5.87;66.97
25610;BME280;13479;49.044;8.716;2022-12-07T09:19:02;99100.06;;;5.84;66.47
25610;BME280;13479;49.044;8.716;2022-12-07T09:21:27;99103.78;;;5.94;66.23
25610;BME280;13479;49.044;8.716;2022-12-07T09:23:53;99099.94;;;5.85;66.53
25610;BME280;13479;49.044;8.716;2022-12-07T09:26:18;99061.69;;;5.93;66.46
25610;BME280;13479;49.044;8.716;2022-12-07T09:28:43;99094.94;;;5.95;66.64
25610;BME280;13479;49.044;8.716;2022-12-07T09:31:09;99075.25;;;6.01;66.77
25610;BME280;13479;49.044;8.716;2022-12-07T09:33:34;99096.47;;;6.12;66.00
25610;BME280;13479;49.044;8.716;2022-12-07T09:35:59;99091.41;;;6.09;66.20
25610;BME280;13479;49.044;8.716;2022-12-07T09:38:24;99059.59;;;6.12;66.23
25610;BME280;13479;49.044;8.716;2022-12-07T09:40:51;99050.94;;;6.23;66.64
25610;BME280;13479;49.044;8.716;2022-12-07T09:43:19;99030.28;;;6.30;66.79
25610;BME280;13479;49.044;8.716;2022-12-07T09:45:46;99029.22;;;6.45;66.19
25610;BME280;13479;49.044;8.716;2022-12-07T09:48:21;99065.06;;;6.61;65.66
25610;BME280;13479;49.044;8.716;2022-12-07T09:50:48;99106.88;;;6.67;64.93
25610;BME280;13479;49.044;8.716;2022-12-07T09:53:24;99118.25;;;6.68;64.58
25610;BME280;13479;49.044;8.716;2022-12-07T09:55:50;99099.25;;;6.88;63.80
25610;BME280;13479;49.044;8.716;2022-12-07T09:58:22;99099.09;;;7.16;63.69
25610;BME280;13479;49.044;8.716;2022-12-07T10:00:50;99103.63;;;7.88;62.37
25610;BME280;13479;49.044;8.716;2022-12-07T10:03:18;99090.72;;;8.08;62.34
25610;BME280;13479;49.044;8.716;2022-12-07T10:05:49;99079.06;;;8.46;61.71
25610;BME280;13479;49.044;8.716;2022-12-07T10:08:15;99071.19;;;8.69;61.22
25610;BME280;13479;49.044;8.716;2022-12-07T10:10:43;99050.97;;;8.79;60.83
25610;BME280;13479;49.044;8.716;2022-12-07T10:13:12;99064.69;;;8.84;59.73
25610;BME280;13479;49.044;8.716;2022-12-07T10:18:35;99022.81;;;8.78;60.01
25610;BME280;13479;49.044;8.716;2022-12-07T10:21:18;99028.25;;;8.65;59.40
25610;BME280;13479;49.044;8.716;2022-12-07T10:26:53;98988.13;;;8.24;60.17
25610;BME280;13479;49.044;8.716;2022-12-07T10:29:26;98973.19;;;8.00;60.38
25610;BME280;13479;49.044;8.716;2022-12-07T10:31:59;98947.19;;;7.83;60.27
25610;BME280;13479;49.044;8.716;2022-12-07T10:34:27;98909.53;;;7.56;60.94
25610;BME280;13479;49.044;8.716;2022-12-07T10:37:11;98852.59;;;7.41;61.79
25610;BME280;13479;49.044;8.716;2022-12-07T10:39:49;98813.91;;;7.29;62.25
25610;BME280;13479;49.044;8.716;2022-12-07T10:42:18;98748.69;;;7.18;62.85
25610;BME280;13479;49.044;8.716;2022-12-07T10:44:44;98717.75;;;7.20;62.82
25610;BME280;13479;49.044;8.716;2022-12-07T10:47:18;98722.53;;;7.03;63.08
25610;BME280;13479;49.044;8.716;2022-12-07T10:50:07;98704.75;;;6.94;63.18
25610;BME280;13479;49.044;8.716;2022-12-07T10:55:26;98706.38;;;6.72;63.42
25610;BME280;13479;49.044;8.716;2022-12-07T10:58:13;98675.41;;;6.63;63.74
25610;BME280;13479;49.044;8.716;2022-12-07T11:06:47;98652.38;;;6.54;63.86
25610;BME280;13479;49.044;8.716;2022-12-07T11:09:49;98665.56;;;6.54;64.07
25610;BME280;13479;49.044;8.716;2022-12-07T11:12:29;98664.47;;;6.56;63.92
25610;BME280;13479;49.044;8.716;2022-12-07T11:15:24;98675.16;;;6.55;64.09
25610;BME280;13479;49.044;8.716;2022-12-07T11:18:23;98667.25;;;6.55;63.84
25610;BME280;13479;49.044;8.716;2022-12-07T11:21:33;98678.97;;;6.51;64.19
25610;BME280;13479;49.044;8.716;2022-12-07T11:24:10;98684.59;;;6.46;64.24
25610;BME280;13479;49.044;8.716;2022-12-07T11:27:01;98674.38;;;6.41;64.04
25610;BME280;13479;49.044;8.716;2022-12-07T11:35:05;98659.38;;;6.42;64.32
25610;BME280;13479;49.044;8.716;2022-12-07T11:37:35;98698.13;;;6.41;63.95
25610;BME280;13479;49.044;8.716;2022-12-07T11:42:53;98685.34;;;6.24;64.73
25610;BME280;13479;49.044;8.716;2022-12-07T11:45:31;98647.50;;;6.25;65.34
25610;BME280;13479;49.044;8.716;2022-12-07T11:48:03;98624.25;;;6.30;65.05
25610;BME280;13479;49.044;8.716;2022-12-07T11:51:11;98664.78;;;6.40;64.76
25610;BME280;13479;49.044;8.716;2022-12-07T11:53:54;98702.81;;;6.49;64.41
25610;BME280;13479;49.044;8.716;2022-12-07T11:56:25;98710.75;;;6.49;64.69
25610;BME280;13479;49.044;8.716;2022-12-07T11:59:02;98688.09;;;6.46;65.03
25610;BME280;13479;49.044;8.716;2022-12-07T12:04:13;98706.84;;;6.66;64.09
25610;BME280;13479;49.044;8.716;2022-12-07T12:06:44;98742.78;;;6.56;64.01
25610;BME280;13479;49.044;8.716;2022-12-07T12:09:20;98771.72;;;6.69;63.83
25610;BME280;13479;49.044;8.716;2022-12-07T12:18:03;98763.63;;;6.83;64.00
25610;BME280;13479;49.044;8.716;2022-12-07T12:20:36;98818.69;;;6.88;63.27
25610;BME280;13479;49.044;8.716;2022-12-07T12:23:35;98844.22;;;6.87;62.94
25610;BME280;13479;49.044;8.716;2022-12-07T12:26:00;98850.63;;;6.72;63.44
25610;BME280;13479;49.044;8.716;2022-12-07T12:28:35;98822.84;;;6.79;63.45
25610;BME280;13479;49.044;8.716;2022-12-07T12:31:15;98823.09;;;6.87;63.26
25610;BME280;13479;49.044;8.716;2022-12-07T12:33:44;98798.91;;;6.93;63.95
25610;BME280;13479;49.044;8.716;2022-12-07T12:54:27;98772.41;;;6.59;64.27
25610;BME280;13479;49.044;8.716;2022-12-07T12:57:09;98722.66;;;6.66;64.18
25610;BME280;13479;49.044;8.716;2022-12-07T13:02:26;98627.91;;;6.52;65.48
25610;BME280;13479;49.044;8.716;2022-12-07T13:05:14;98616.63;;;6.49;65.10
25610;BME280;13479;49.044;8.716;2022-12-07T13:15:48;98609.47;;;6.63;65.36
25610;BME280;13479;49.044;8.716;2022-12-07T13:23:24;98579.69;;;6.38;65.83
25610;BME280;13479;49.044;8.716;2022-12-07T13:26:14;98575.13;;;6.29;66.13
25610;BME280;13479;49.044;8.716;2022-12-07T13:28:45;98568.66;;;6.33;66.26
25610;BME280;13479;49.044;8.716;2022-12-07T13:31:30;98588.56;;;6.37;66.27
25610;BME280;13479;49.044;8.716;2022-12-07T13:33:57;98580.38;;;6.29;66.36
25610;BME280;13479;49.044;8.716;2022-12-07T13:36:27;98574.41;;;6.38;66.50
25610;BME280;13479;49.044;8.716;2022-12-07T13:38:58;98576.59;;;6.44;66.84
25610;BME280;13479;49.044;8.716;2022-12-07T13:41:28;98596.75;;;6.57;66.79
25610;BME280;13479;49.044;8.716;2022-12-07T13:44:05;98623.16;;;6.68;66.22
25610;BME280;13479;49.044;8.716;2022-12-07T13:46:40;98638.88;;;6.81;66.13
25610;BME280;13479;49.044;8.716;2022-12-07T13:49:17;98663.47;;;6.93;65.65
25610;BME280;13479;49.044;8.716;2022-12-07T13:51:43;98707.16;;;6.97;65.52
25610;BME280;13479;49.044;8.716;2022-12-07T13:54:10;98723.50;;;7.02;65.06
25610;BME280;13479;49.044;8.716;2022-12-07T13:56:36;98764.88;;;7.02;64.96
25610;BME280;13479;49.044;8.716;2022-12-07T13:59:02;98783.00;;;7.06;64.66
25610;BME280;13479;49.044;8.716;2022-12-07T14:01:30;98789.22;;;7.05;65.18
25610;BME280;13479;49.044;8.716;2022-12-07T14:04:32;98799.34;;;7.11;64.80
25610;BME280;13479;49.044;8.716;2022-12-07T14:06:59;98796.91;;;7.08;64.73
25610;BME280;13479;49.044;8.716;2022-12-07T14:09:27;98842.78;;;7.19;63.75
25610;BME280;13479;49.044;8.716;2022-12-07T14:11:55;98867.75;;;7.15;64.08
25610;BME280;13479;49.044;8.716;2022-12-07T14:14:26;98868.75;;;7.01;63.96
25610;BME280;13479;49.044;8.716;2022-12-07T14:17:11;98829.97;;;6.90;64.21
25610;BME280;13479;49.044;8.716;2022-12-07T14:19:43;98847.38;;;6.92;63.89
25610;BME280;13479;49.044;8.716;2022-12-07T14:22:19;98834.13;;;6.81;64.35
25610;BME280;13479;49.044;8.716;2022-12-07T14:24:45;98801.13;;;6.75;64.61
25610;BME280;13479;49.044;8.716;2022-12-07T14:27:23;98802.28;;;6.71;64.71
25610;BME280;13479;49.044;8.716;2022-12-07T14:29:55;98766.50;;;6.56;65.39
25610;BME280;13479;49.044;8.716;2022-12-07T14:32:23;98727.69;;;6.58;65.29
25610;BME280;13479;49.044;8.716;2022-12-07T14:35:00;98702.59;;;6.52;65.90
25610;BME280;13479;49.044;8.716;2022-12-07T14:37:27;98681.16;;;6.57;65.61
25610;BME280;13479;49.044;8.716;2022-12-07T14:39:52;98674.31;;;6.54;66.01
25610;BME280;13479;49.044;8.716;2022-12-07T14:42:18;98675.00;;;6.45;65.89
25610;BME280;13479;49.044;8.716;2022-12-07T14:44:44;98659.66;;;6.39;66.06
25610;BME280;13479;49.044;8.716;2022-12-07T14:47:10;98645.00;;;6.34;66.35
25610;BME280;13479;49.044;8.716;2022-12-07T14:49:35;98638.28;;;6.42;65.81
25610;BME280;13479;49.044;8.716;2022-12-07T14:52:01;98655.94;;;6.41;65.95
25610;BME280;13479;49.044;8.716;2022-12-07T14:54:29;98657.78;;;6.28;66.35
25610;BME280;13479;49.044;8.716;2022-12-07T14:56:55;98636.69;;;6.28;66.29
25610;BME280;13479;49.044;8.716;2022-12-07T14:59:21;98635.16;;;6.25;66.49
25610;BME280;13479;49.044;8.716;2022-12-07T15:01:46;98626.63;;;6.22;66.72
25610;BME280;13479;49.044;8.716;2022-12-07T15:04:11;98604.81;;;6.20;66.44
25610;BME280;13479;49.044;8.716;2022-12-07T15:06:37;98600.31;;;6.09;66.89
25610;BME280;13479;49.044;8.716;2022-12-07T15:09:03;98585.97;;;6.13;67.06
25610;BME280;13479;49.044;8.716;2022-12-07T15:11:28;98574.31;;;6.04;67.42
25610;BME280;13479;49.044;8.716;2022-12-07T15:13:54;98585.81;;;6.03;67.30
25610;BME280;13479;49.044;8.716;2022-12-07T15:16:37;98600.44;;;6.07;66.89
25610;BME280;13479;49.044;8.716;2022-12-07T15:19:02;98624.38;;;6.04;66.83
25610;BME280;13479;49.044;8.716;2022-12-07T15:21:28;98630.97;;;5.85;67.16
25610;BME280;13479;49.044;8.716;2022-12-07T15:23:53;98584.59;;;5.71;68.11
25610;BME280;13479;49.044;8.716;2022-12-07T15:26:19;98552.06;;;5.60;67.98
25610;BME280;13479;49.044;8.716;2022-12-07T15:28:44;98541.53;;;5.60;68.96
25610;BME280;13479;49.044;8.716;2022-12-07T15:31:16;98558.13;;;5.73;68.82
25610;BME280;13479;49.044;8.716;2022-12-07T15:33:42;98576.72;;;5.59;68.75
25610;BME280;13479;49.044;8.716;2022-12-07T15:36:13;98572.88;;;5.51;69.24
25610;BME280;13479;49.044;8.716;2022-12-07T15:38:42;98576.59;;;5.36;69.07
25610;BME280;13479;49.044;8.716;2022-12-07T15:41:08;98564.03;;;5.15;69.30
25610;BME280;13479;49.044;8.716;2022-12-07T15:43:33;98557.94;;;5.15;70.22
25610;BME280;13479;49.044;8.716;2022-12-07T15:46:17;98568.69;;;4.99;69.88
25610;BME280;13479;49.044;8.716;2022-12-07T15:48:42;98559.44;;;4.80;69.86
25610;BME280;13479;49.044;8.716;2022-12-07T15:51:08;98563.25;;;4.63;70.38
25610;BME280;13479;49.044;8.716;2022-12-07T15:53:34;98561.88;;;4.57;71.24
25610;BME280;13479;49.044;8.716;2022-12-07T15:56:00;98575.88;;;4.45;71.35
25610;BME280;13479;49.044;8.716;2022-12-07T15:58:25;98578.28;;;4.22;71.99
25610;BME280;13479;49.044;8.716;2022-12-07T16:00:50;98570.41;;;4.22;71.94
25610;BME280;13479;49.044;8.716;2022-12-07T16:03:16;98593.25;;;4.07;73.15
25610;BME280;13479;49.044;8.716;2022-12-07T16:05:41;98594.28;;;3.92;72.88
25610;BME280;13479;49.044;8.716;2022-12-07T16:08:06;98604.06;;;3.90;73.30
25610;BME280;13479;49.044;8.716;2022-12-07T16:10:32;98606.53;;;3.78;73.59
25610;BME280;13479;49.044;8.716;2022-12-07T16:12:57;98619.41;;;3.68;73.96
25610;BME280;13479;49.044;8.716;2022-12-07T16:15:22;98631.06;;;3.64;74.59
25610;BME280;13479;49.044;8.716;2022-12-07T16:17:50;98647.91;;;3.75;74.79
25610;BME280;13479;49.044;8.716;2022-12-07T16:20:15;98657.47;;;3.76;74.60
25610;BME280;13479;49.044;8.716;2022-12-07T16:22:40;98672.47;;;3.74;75.44
25610;BME280;13479;49.044;8.716;2022-12-07T16:25:06;98672.28;;;3.77;75.08
25610;BME280;13479;49.044;8.716;2022-12-07T16:27:31;98693.47;;;3.88;75.53
25610;BME280;13479;49.044;8.716;2022-12-07T16:29:56;98702.81;;;3.92;75.54
25610;BME280;13479;49.044;8.716;2022-12-07T16:32:21;98719.88;;;3.99;75.02
25610;BME280;13479;49.044;8.716;2022-12-07T16:34:47;98730.09;;;4.04;75.56
25610;BME280;13479;49.044;8.716;2022-12-07T16:37:12;98726.53;;;4.05;75.86
25610;BME280;13479;49.044;8.716;2022-12-07T16:39:37;98744.22;;;4.16;75.66
25610;BME280;13479;49.044;8.716;2022-12-07T16:42:02;98742.16;;;4.21;76.08
25610;BME280;13479;49.044;8.716;2022-12-07T16:44:28;98755.44;;;4.32;75.75
25610;BME280;13479;49.044;8.716;2022-12-07T16:46:53;98759.84;;;4.32;75.43
25610;BME280;13479;49.044;8.716;2022-12-07T16:49:18;98766.16;;;4.42;74.96
25610;BME280;13479;49.044;8.716;2022-12-07T16:51:44;98799.66;;;4.53;74.40
25610;BME280;13479;49.044;8.716;2022-12-07T16:54:11;98821.47;;;4.41;74.32
25610;BME280;13479;49.044;8.716;2022-12-07T16:56:37;98841.50;;;4.56;74.01
25610;BME280;13479;49.044;8.716;2022-12-07T16:59:03;98845.50;;;4.49;74.41
25610;BME280;13479;49.044;8.716;2022-12-07T17:01:28;98834.16;;;4.48;74.14
25610;BME280;13479;49.044;8.716;2022-12-07T17:03:54;98832.38;;;4.62;73.49
25610;BME280;13479;49.044;8.716;2022-12-07T17:06:22;98839.84;;;4.55;73.84
25610;BME280;13479;49.044;8.716;2022-12-07T17:08:48;98838.88;;;4.56;73.87
25610;BME280;13479;49.044;8.716;2022-12-07T17:11:17;98814.69;;;4.51;74.01
25610;BME280;13479;49.044;8.716;2022-12-07T17:13:43;98795.69;;;4.60;74.43
25610;BME280;13479;49.044;8.716;2022-12-07T17:16:28;98806.19;;;4.60;74.00
25610;BME280;13479;49.044;8.716;2022-12-07T17:18:53;98818.53;;;4.60;73.86
25610;BME280;13479;49.044;8.716;2022-12-07T17:21:19;98820.94;;;4.63;73.58
25610;BME280;13479;49.044;8.716;2022-12-07T17:23:44;98826.63;;;4.70;73.45
25610;BME280;13479;49.044;8.716;2022-12-07T17:26:15;98824.94;;;4.69;73.43
25610;BME280;13479;49.044;8.716;2022-12-07T17:28:41;98837.16;;;4.70;73.42
25610;BME280;13479;49.044;8.716;2022-12-07T17:31:09;98842.41;;;4.70;73.55
25610;BME280;13479;49.044;8.716;2022-12-07T17:33:35;98848.13;;;4.76;73.52
25610;BME280;13479;49.044;8.716;2022-12-07T17:36:01;98882.00;;;4.81;72.21
25610;BME280;13479;49.044;8.716;2022-12-07T17:38:28;98900.66;;;4.78;72.39
25610;BME280;13479;49.044;8.716;2022-12-07T17:40:53;98905.91;;;4.78;71.87
25610;BME280;13479;49.044;8.716;2022-12-07T17:43:18;98893.13;;;4.72;72.17
25610;BME280;13479;49.044;8.716;2022-12-07T17:45:44;98863.56;;;4.68;72.60
25610;BME280;13479;49.044;8.716;2022-12-07T17:48:09;98838.47;;;4.77;72.66
25610;BME280;13479;49.044;8.716;2022-12-07T17:50:34;98844.75;;;4.74;72.79
25610;BME280;13479;49.044;8.716;2022-12-07T17:53:18;98842.03;;;4.76;72.45
25610;BME280;13479;49.044;8.716;2022-12-07T17:55:43;98844.44;;;4.79;72.71
25610;BME280;13479;49.044;8.716;2022-12-07T17:58:09;98871.50;;;4.81;71.94
25610;BME280;13479;49.044;8.716;2022-12-07T18:00:34;98870.97;;;4.76;71.74
25610;BME280;13479;49.044;8.716;2022-12-07T18:03:05;98879.03;;;4.73;71.87
25610;BME280;13479;49.044;8.716;2022-12-07T18:05:33;98859.81;;;4.72;71.83
25610;BME280;13479;49.044;8.716;2022-12-07T18:07:58;98851.25;;;4.69;71.96
25610;BME280;13479;49.044;8.716;2022-12-07T18:10:23;98843.28;;;4.70;71.85
25610;BME280;13479;49.044;8.716;2022-12-07T18:12:49;98851.84;;;4.59;71.97
25610;BME280;13479;49.044;8.716;2022-12-07T18:15:14;98828.63;;;4.66;71.99
25610;BME280;13479;49.044;8.716;2022-12-07T18:17:40;98832.31;;;4.63;71.88
25610;BME280;13479;49.044;8.716;2022-12-07T18:20:06;98848.03;;;4.78;71.19
25610;BME280;13479;49.044;8.716;2022-12-07T18:22:32;98891.25;;;4.74;70.70
25610;BME280;13479;49.044;8.716;2022-12-07T18:24:57;98889.41;;;4.61;71.42
25610;BME280;13479;49.044;8.716;2022-12-07T18:27:22;98864.59;;;4.66;71.41
25610;BME280;13479;49.044;8.716;2022-12-07T18:29:47;98834.78;;;4.52;72.31
25610;BME280;13479;49.044;8.716;2022-12-07T18:32:13;98792.72;;;4.52;72.14
25610;BME280;13479;49.044;8.716;2022-12-07T18:34:38;98792.72;;;4.52;71.93
25610;BME280;13479;49.044;8.716;2022-12-07T18:37:05;98771.56;;;4.54;72.61
25610;BME280;13479;49.044;8.716;2022-12-07T18:39:30;98759.53;;;4.37;73.06
25610;BME280;13479;49.044;8.716;2022-12-07T18:41:55;98728.91;;;4.23;73.06
25610;BME280;13479;49.044;8.716;2022-12-07T18:44:21;98695.22;;;4.15;72.87
25610;BME280;13479;49.044;8.716;2022-12-07T18:46:46;98667.28;;;4.14;73.48
25610;BME280;13479;49.044;8.716;2022-12-07T18:49:12;98652.66;;;4.10;73.61
25610;BME280;13479;49.044;8.716;2022-12-07T18:51:38;98630.53;;;4.27;73.81
25610;BME280;13479;49.044;8.716;2022-12-07T18:54:03;98659.00;;;4.20;74.08
25610;BME280;13479;49.044;8.716;2022-12-07T18:56:29;98650.25;;;4.20;73.68
25610;BME280;13479;49.044;8.716;2022-12-07T18:58:57;98639.13;;;4.16;74.21
25610;BME280;13479;49.044;8.716;2022-12-07T19:01:43;98633.22;;;4.12;74.45
25610;BME280;13479;49.044;8.716;2022-12-07T19:04:09;98641.41;;;4.08;74.14
25610;BME280;13479;49.044;8.716;2022-12-07T19:06:35;98639.91;;;4.04;74.14
25610;BME280;13479;49.044;8.716;2022-12-07T19:09:01;98637.69;;;3.97;74.71
25610;BME280;13479;49.044;8.716;2022-12-07T19:11:28;98643.28;;;4.06;74.68
25610;BME280;13479;49.044;8.716;2022-12-07T19:14:24;98661.53;;;3.94;74.35
25610;BME280;13479;49.044;8.716;2022-12-07T19:16:52;98655.94;;;3.86;74.70
25610;BME280;13479;49.044;8.716;2022-12-07T19:19:19;98641.00;;;3.86;74.65
25610;BME280;13479;49.044;8.716;2022-12-07T19:21:45;98646.19;;;3.88;75.05
25610;BME280;13479;49.044;8.716;2022-12-07T19:24:11;98654.75;;;3.77;74.73